Yilaxi, China
Current Conditions -  °F | °C
As of 10:00 AM on Wednesday 26 Nov 2014 (Local Time) from ZYCC Reporting Station
Clear Clear  
Wind Chill: 36°   Ceiling: Unl
Heat Index: 45°   Visibility: 6mi
Dew Point: 23°   Wind: 20mph
Humidity: 43%   Direction: 190°S
Pressure: 29.85"   Gusts: 31mph
Location:  43.77°N, 126.12°E
Report Text: ZYCC 260200Z 19009G14MPS CAVOK 07/M05 Q1011 NOSIG
Loading
Personal Weather Stations






























Interactive Weather Map New forecast layout! Learn more

10-Day Weather Forecast

Advertisements
Track Severe Weather on mobile